Main page
METAR-TAF:

METAR-TAF

Airports :

Wahoo Municipal Airport

Wahoo, Nebraska, United States

latitude: 41-14-26N, longitude: 096-35-40W, elevation: 1223 ft

Current weather observation

The report was made 26 minutes ago, at 21:15 UTC
Wind 10 mph from the South/Southeast
Temperature 66°F
Humidity 68%
Pressure 29.85 in. Hg
Visibility: 10 miles
Clear sky

METAR: KAHQ 192115Z AUTO 15009KT 10SM CLR 19/13 A2985 RMK AO2 T01900127

Time: 16:41 (21:41 UTC)


TAF: missing

Weather observations and forecasts of more than 4000 airports (METAR and TAF reports).

The available stations are represented by yellow and red dots on the map.

Hover mouse over dot to see the name of the station.

Then click to see weather observations and forecasts.

To change the map : click on the green buttons with a black cross to zoom in, on the green button with a dash to zoom out, or on the green arrows for adjacent maps.


METAR-TAF: